createdAt,value
2023-02-14T00:01:33.222Z,21.27
2023-02-14T00:04:01.558Z,21.80
2023-02-14T00:06:35.199Z,21.90
2023-02-14T00:09:03.417Z,20.40
2023-02-14T00:11:31.524Z,21.53
2023-02-14T00:14:19.423Z,22.57
2023-02-14T00:16:47.567Z,21.00
2023-02-14T00:19:20.783Z,21.33
2023-02-14T00:21:49.615Z,20.90
2023-02-14T00:24:20.783Z,22.20
2023-02-14T00:26:50.126Z,22.33
2023-02-14T00:29:22.316Z,22.37
2023-02-14T00:31:52.004Z,22.33
2023-02-14T00:34:20.254Z,22.13
2023-02-14T00:36:48.729Z,22.70
2023-02-14T00:39:19.106Z,22.40
2023-02-14T00:41:47.524Z,22.33
2023-02-14T00:44:19.409Z,20.40
2023-02-14T00:46:47.310Z,21.33
2023-02-14T00:49:15.171Z,22.10
2023-02-14T00:51:43.227Z,21.83
2023-02-14T00:54:11.201Z,22.40
2023-02-14T00:56:39.023Z,22.07
2023-02-14T00:59:06.866Z,21.57
2023-02-14T01:01:36.206Z,20.37
2023-02-14T01:04:05.174Z,19.93
2023-02-14T01:06:32.985Z,22.53
2023-02-14T01:09:00.914Z,21.03
2023-02-14T01:11:30.236Z,22.07
2023-02-14T01:13:59.066Z,24.10
2023-02-14T01:16:29.474Z,23.33
2023-02-14T01:19:01.124Z,23.43
2023-02-14T01:21:32.291Z,23.00
2023-02-14T01:24:04.115Z,23.83
2023-02-14T01:26:32.954Z,22.87
2023-02-14T01:29:05.322Z,21.87
2023-02-14T01:31:35.901Z,20.33
2023-02-14T01:34:05.429Z,21.33
2023-02-14T01:36:37.645Z,21.23
2023-02-14T01:39:10.852Z,20.43
2023-02-14T01:41:41.339Z,20.93
2023-02-14T01:44:56.456Z,22.67
2023-02-14T01:47:28.697Z,20.43
2023-02-14T01:50:04.826Z,21.43
2023-02-14T01:52:37.747Z,20.53
2023-02-14T01:55:12.508Z,21.40
2023-02-14T01:57:45.769Z,22.13
2023-02-14T02:00:34.519Z,23.80
2023-02-14T02:03:06.747Z,24.90
2023-02-14T02:05:40.379Z,27.40
2023-02-14T02:08:08.625Z,27.60
2023-02-14T02:10:36.499Z,27.80
2023-02-14T02:13:08.251Z,25.27
2023-02-14T02:15:59.021Z,25.87
2023-02-14T02:18:47.474Z,24.33
2023-02-14T02:21:53.363Z,26.00
2023-02-14T02:24:34.645Z,24.13
2023-02-14T02:27:25.829Z,24.53
2023-02-14T02:30:36.669Z,22.90
2023-02-14T02:34:05.186Z,21.50
2023-02-14T02:36:59.111Z,21.83
2023-02-14T02:39:49.967Z,22.20
2023-02-14T02:42:36.058Z,20.33
2023-02-14T02:45:14.353Z,19.70
2023-02-14T02:47:54.092Z,22.47
2023-02-14T02:50:48.727Z,21.07
2023-02-14T02:53:29.047Z,21.67
2023-02-14T02:56:23.935Z,21.77
2023-02-14T02:58:58.966Z,20.83
2023-02-14T03:01:32.247Z,22.05
2023-02-14T03:04:23.960Z,20.17
2023-02-14T03:06:52.847Z,21.37
2023-02-14T03:09:54.702Z,21.13
2023-02-14T03:13:10.170Z,22.27
2023-02-14T03:16:00.292Z,22.83
2023-02-14T03:18:51.204Z,22.60
2023-02-14T03:21:31.371Z,24.40
2023-02-14T03:24:13.718Z,24.20
2023-02-14T03:26:51.996Z,26.57
2023-02-14T03:29:28.436Z,26.60
2023-02-14T03:32:09.379Z,27.43
2023-02-14T03:34:54.837Z,26.87
2023-02-14T03:37:30.715Z,26.13
2023-02-14T03:42:43.295Z,23.53
2023-02-14T03:45:22.567Z,26.50
2023-02-14T03:47:52.615Z,28.97
2023-02-14T03:50:20.941Z,28.77
2023-02-14T03:52:53.836Z,30.10
2023-02-14T03:55:32.264Z,30.20
2023-02-14T03:58:11.167Z,33.13
2023-02-14T04:00:42.469Z,33.20
2023-02-14T04:03:15.166Z,33.87
2023-02-14T04:05:46.728Z,33.37
2023-02-14T04:08:21.943Z,34.63
2023-02-14T04:10:50.733Z,34.10
2023-02-14T04:13:20.141Z,34.73
2023-02-14T04:15:48.206Z,34.67
2023-02-14T04:18:48.476Z,33.43
2023-02-14T04:21:16.365Z,34.17
2023-02-14T04:23:44.178Z,32.33
2023-02-14T04:26:12.177Z,33.57
2023-02-14T04:28:41.312Z,33.57
2023-02-14T04:31:10.965Z,33.20
2023-02-14T04:33:39.307Z,30.90
2023-02-14T04:36:07.783Z,32.73
2023-02-14T04:38:35.868Z,31.77
2023-02-14T04:41:04.026Z,32.83
2023-02-14T04:43:31.797Z,32.83
2023-02-14T04:46:01.057Z,31.50
2023-02-14T04:48:28.866Z,29.73
2023-02-14T04:50:56.607Z,30.20
2023-02-14T04:53:24.533Z,31.27
2023-02-14T04:55:52.254Z,30.10
2023-02-14T04:58:20.048Z,32.33
2023-02-14T05:00:48.203Z,31.80
2023-02-14T05:03:17.482Z,32.03
2023-02-14T05:05:45.305Z,29.17
2023-02-14T05:08:14.374Z,29.43
2023-02-14T05:10:42.108Z,30.77
2023-02-14T05:13:09.842Z,30.20
2023-02-14T05:15:38.617Z,30.57
2023-02-14T05:18:06.710Z,30.30
2023-02-14T05:20:35.805Z,30.97
2023-02-14T05:23:05.087Z,31.53
2023-02-14T05:25:33.017Z,29.57
2023-02-14T05:28:00.858Z,28.83
2023-02-14T05:30:30.087Z,28.87
2023-02-14T05:32:58.021Z,30.10
2023-02-14T05:35:26.019Z,30.27
2023-02-14T05:37:55.878Z,31.63
2023-02-14T05:40:27.288Z,31.37
2023-02-14T05:42:55.968Z,30.97
2023-02-14T05:45:23.834Z,31.63
2023-02-14T05:47:51.952Z,31.83
2023-02-14T05:50:20.825Z,31.43
2023-02-14T05:52:48.652Z,33.23
2023-02-14T05:55:17.890Z,32.77
2023-02-14T05:57:45.804Z,31.40
2023-02-14T06:00:15.439Z,29.17
2023-02-14T06:02:43.215Z,27.07
2023-02-14T06:05:11.094Z,28.70
2023-02-14T06:07:38.837Z,25.47
2023-02-14T06:10:09.904Z,27.60
2023-02-14T06:12:39.060Z,27.07
2023-02-14T06:15:07.776Z,27.33
2023-02-14T06:17:35.508Z,23.83
2023-02-14T06:20:06.187Z,24.20
2023-02-14T06:22:34.057Z,24.00
2023-02-14T06:25:01.895Z,21.67
2023-02-14T06:27:30.812Z,24.60
2023-02-14T06:30:00.456Z,23.97
2023-02-14T06:32:28.270Z,20.80
2023-02-14T06:34:56.070Z,19.57
2023-02-14T06:37:24.263Z,20.97
2023-02-14T06:39:52.197Z,20.33
2023-02-14T06:42:20.404Z,20.30
2023-02-14T06:44:48.280Z,19.17
2023-02-14T06:47:17.647Z,21.37
2023-02-14T06:49:45.510Z,19.67
2023-02-14T06:52:13.659Z,20.37
2023-02-14T06:54:41.442Z,19.97
2023-02-14T06:57:09.351Z,18.60
2023-02-14T06:59:37.164Z,19.33
2023-02-14T07:02:05.256Z,15.97
2023-02-14T07:04:34.409Z,20.87
2023-02-14T07:07:04.276Z,21.67
2023-02-14T07:09:32.214Z,22.23
2023-02-14T07:12:00.890Z,25.03
2023-02-14T07:14:28.822Z,25.57
2023-02-14T07:16:56.568Z,24.40
2023-02-14T07:19:24.707Z,25.80
2023-02-14T07:21:53.903Z,25.67
2023-02-14T07:24:21.747Z,24.83
2023-02-14T07:26:49.512Z,26.43
2023-02-14T07:29:17.431Z,25.30
2023-02-14T07:31:45.369Z,25.93
2023-02-14T07:34:13.313Z,24.00
2023-02-14T07:36:41.328Z,23.73
2023-02-14T07:39:10.757Z,26.47
2023-02-14T07:41:38.544Z,27.63
2023-02-14T07:44:11.252Z,26.27
2023-02-14T07:46:39.061Z,24.40
2023-02-14T07:49:06.945Z,25.83
2023-02-14T07:51:34.818Z,25.47
2023-02-14T07:54:02.726Z,25.97
2023-02-14T07:56:32.625Z,25.90
2023-02-14T07:59:00.507Z,23.07
2023-02-14T08:01:28.436Z,25.67
2023-02-14T08:03:56.269Z,25.53
2023-02-14T08:06:26.083Z,21.80
2023-02-14T08:08:54.091Z,23.20
2023-02-14T08:11:42.335Z,23.63
2023-02-14T08:14:14.489Z,23.70
2023-02-14T08:16:42.351Z,22.87
2023-02-14T08:19:10.034Z,23.90
2023-02-14T08:21:37.825Z,23.73
2023-02-14T08:24:09.152Z,25.33
2023-02-14T08:26:36.900Z,24.83
2023-02-14T08:29:04.688Z,25.47
2023-02-14T08:31:36.100Z,25.80
2023-02-14T08:34:07.674Z,26.30
2023-02-14T08:36:35.584Z,26.30
2023-02-14T08:39:05.199Z,26.40
2023-02-14T08:41:33.668Z,25.90
2023-02-14T08:44:01.889Z,24.83
2023-02-14T08:46:29.968Z,23.90
2023-02-14T08:48:59.376Z,25.97
2023-02-14T08:51:27.360Z,26.03
2023-02-14T08:53:55.861Z,24.27
2023-02-14T08:56:24.863Z,25.77
2023-02-14T08:58:54.397Z,24.33
2023-02-14T09:01:22.727Z,23.60
2023-02-14T09:03:50.594Z,21.47
2023-02-14T09:06:20.033Z,21.33
2023-02-14T09:08:48.023Z,22.80
2023-02-14T09:11:19.754Z,22.40
2023-02-14T09:13:50.565Z,21.50
2023-02-14T09:16:20.171Z,21.20
2023-02-14T09:18:48.946Z,19.67
2023-02-14T09:21:20.812Z,17.47
2023-02-14T09:23:48.915Z,15.70
2023-02-14T09:26:18.481Z,14.90
2023-02-14T09:28:46.900Z,14.43
2023-02-14T09:31:17.685Z,14.00
2023-02-14T09:33:47.173Z,14.33
2023-02-14T09:36:21.092Z,14.43
2023-02-14T09:38:50.406Z,14.40
2023-02-14T09:41:52.959Z,14.27
2023-02-14T09:44:32.593Z,15.17
2023-02-14T09:47:17.007Z,15.23
2023-02-14T09:49:47.636Z,15.23
2023-02-14T09:52:19.873Z,15.43
2023-02-14T09:54:57.864Z,14.70
2023-02-14T09:57:42.202Z,14.27
2023-02-14T10:00:23.319Z,13.80
2023-02-14T10:03:07.287Z,13.90
2023-02-14T10:05:45.666Z,13.83
2023-02-14T10:08:36.366Z,14.07
2023-02-14T10:11:09.063Z,14.33
2023-02-14T10:13:44.756Z,14.53
2023-02-14T10:16:25.768Z,14.40
2023-02-14T10:19:01.488Z,15.37
2023-02-14T10:21:36.266Z,14.95
2023-02-14T10:24:16.014Z,14.95
2023-02-14T10:26:49.441Z,15.40
2023-02-14T10:29:19.554Z,13.93
2023-02-14T10:31:56.896Z,15.23
2023-02-14T10:34:38.857Z,13.65
2023-02-14T10:37:31.218Z,13.70
2023-02-14T10:40:28.649Z,13.05
2023-02-14T10:43:12.954Z,12.52
2023-02-14T10:45:55.433Z,12.98
2023-02-14T10:48:38.052Z,11.43
2023-02-14T10:51:19.246Z,12.02
2023-02-14T10:54:05.490Z,12.10
2023-02-14T10:56:40.875Z,11.30
2023-02-14T10:59:22.091Z,11.50
2023-02-14T11:01:53.940Z,11.57
2023-02-14T11:04:25.211Z,11.70
2023-02-14T11:06:53.845Z,11.18
2023-02-14T11:09:22.112Z,11.35
2023-02-14T11:11:54.618Z,11.40
2023-02-14T11:14:30.072Z,11.25
2023-02-14T11:17:00.069Z,11.27
2023-02-14T11:19:33.307Z,11.90
2023-02-14T11:22:02.778Z,11.30
2023-02-14T11:24:33.827Z,12.10
2023-02-14T11:27:07.906Z,11.82
2023-02-14T11:29:45.680Z,12.25
2023-02-14T11:32:16.503Z,11.70
2023-02-14T11:34:53.818Z,11.45
2023-02-14T11:37:28.553Z,11.35
2023-02-14T11:40:00.257Z,11.43
2023-02-14T11:42:38.741Z,10.85
2023-02-14T11:45:29.777Z,12.52
2023-02-14T11:48:31.539Z,11.73
2023-02-14T11:51:09.882Z,12.50
2023-02-14T11:53:47.401Z,12.05
2023-02-14T11:56:17.735Z,11.98
2023-02-14T11:58:53.678Z,10.77
2023-02-14T12:01:27.764Z,12.00
2023-02-14T12:04:01.949Z,11.52
2023-02-14T12:06:33.906Z,12.23
2023-02-14T12:09:13.301Z,12.20
2023-02-14T12:11:41.324Z,11.93
2023-02-14T12:14:22.035Z,11.70
2023-02-14T12:17:02.889Z,11.57
2023-02-14T12:19:41.504Z,11.25
2023-02-14T12:22:17.313Z,11.05
2023-02-14T12:24:54.149Z,11.35
2023-02-14T12:27:29.974Z,12.02
2023-02-14T12:30:07.707Z,12.27
2023-02-14T12:32:38.548Z,12.05
2023-02-14T12:35:16.729Z,12.45
2023-02-14T12:38:04.734Z,11.77
2023-02-14T12:40:51.527Z,12.63
2023-02-14T12:43:45.213Z,11.85
2023-02-14T12:46:34.086Z,12.30
2023-02-14T12:49:31.434Z,11.80
2023-02-14T12:52:28.667Z,11.13
2023-02-14T12:55:23.272Z,11.45
2023-02-14T12:58:00.152Z,12.75
2023-02-14T13:00:45.785Z,12.55
2023-02-14T13:03:57.923Z,12.07
2023-02-14T13:06:33.424Z,12.27
2023-02-14T13:09:22.945Z,12.27
2023-02-14T13:12:10.281Z,12.73
2023-02-14T13:15:09.268Z,12.40
2023-02-14T13:17:44.550Z,12.20
2023-02-14T13:20:39.428Z,12.38
2023-02-14T13:23:19.073Z,10.95
2023-02-14T13:25:54.287Z,12.10
2023-02-14T13:30:50.274Z,11.93
2023-02-14T13:33:32.516Z,12.23
2023-02-14T13:36:07.726Z,12.63
2023-02-14T13:38:44.326Z,12.40
2023-02-14T13:41:15.422Z,12.55
2023-02-14T13:43:54.932Z,11.50
2023-02-14T13:46:51.063Z,11.68
2023-02-14T13:49:30.532Z,12.10
2023-02-14T13:52:03.473Z,11.57
2023-02-14T13:54:40.923Z,11.50
2023-02-14T13:57:31.482Z,11.65
2023-02-14T14:00:35.297Z,11.60
2023-02-14T14:03:04.667Z,11.65
2023-02-14T14:06:03.653Z,11.00
2023-02-14T14:08:45.046Z,11.52
2023-02-14T14:11:51.869Z,11.48
2023-02-14T14:14:36.943Z,11.75
2023-02-14T14:17:26.191Z,11.40
2023-02-14T14:19:54.523Z,11.57
2023-02-14T14:22:22.641Z,11.30
2023-02-14T14:25:01.827Z,11.85
2023-02-14T14:27:35.928Z,10.48
2023-02-14T14:30:15.408Z,9.90
2023-02-14T14:32:45.151Z,9.77
2023-02-14T14:35:21.092Z,10.55
2023-02-14T14:37:51.679Z,10.25
2023-02-14T14:40:25.622Z,10.20
2023-02-14T14:43:12.019Z,9.77
2023-02-14T14:45:43.613Z,10.18
2023-02-14T14:48:18.224Z,11.10
2023-02-14T14:50:50.310Z,10.27
2023-02-14T14:53:25.155Z,10.57
2023-02-14T14:55:54.810Z,9.23
2023-02-14T14:58:38.431Z,9.90
2023-02-14T15:01:10.890Z,9.48
2023-02-14T15:03:39.692Z,9.10
2023-02-14T15:06:17.332Z,9.27
2023-02-14T15:08:45.979Z,9.93
2023-02-14T15:11:39.158Z,9.13
2023-02-14T15:14:16.954Z,9.45
2023-02-14T15:16:49.387Z,9.60
2023-02-14T15:19:23.186Z,9.73
2023-02-14T15:21:51.076Z,9.70
2023-02-14T15:24:20.014Z,10.13
2023-02-14T15:26:49.311Z,9.63
2023-02-14T15:29:26.232Z,9.35
2023-02-14T15:31:57.425Z,9.75
2023-02-14T15:34:31.213Z,10.27
2023-02-14T15:37:06.158Z,9.53
2023-02-14T15:39:38.434Z,10.48
2023-02-14T15:42:22.792Z,9.95
2023-02-14T15:45:17.688Z,9.75
2023-02-14T15:47:50.462Z,9.43
2023-02-14T15:50:24.089Z,10.13
2023-02-14T15:52:56.380Z,9.90
2023-02-14T15:55:27.437Z,9.73
2023-02-14T15:57:59.651Z,9.73
2023-02-14T16:00:31.486Z,9.77
2023-02-14T16:03:04.876Z,10.43
2023-02-14T16:05:33.117Z,10.63
2023-02-14T16:08:04.272Z,10.90
2023-02-14T16:10:34.889Z,10.57
2023-02-14T16:13:06.588Z,10.70
2023-02-14T16:15:37.652Z,10.55
2023-02-14T16:18:18.972Z,10.65
2023-02-14T16:20:50.986Z,10.67
2023-02-14T16:23:24.789Z,10.40
2023-02-14T16:25:53.898Z,10.40
2023-02-14T16:28:21.845Z,11.53
2023-02-14T16:30:57.649Z,11.33
2023-02-14T16:33:30.329Z,11.93
2023-02-14T16:36:06.307Z,11.73
2023-02-14T16:38:42.451Z,11.80
2023-02-14T16:41:18.911Z,12.03
2023-02-14T16:43:48.030Z,12.13
2023-02-14T16:46:21.728Z,11.90
2023-02-14T16:48:52.473Z,11.73
2023-02-14T16:51:25.600Z,12.83
2023-02-14T16:53:56.859Z,11.53
2023-02-14T16:56:33.426Z,13.07
2023-02-14T16:59:01.292Z,14.20
2023-02-14T17:01:32.109Z,16.57
2023-02-14T17:04:00.250Z,14.00
2023-02-14T17:06:32.304Z,12.27
2023-02-14T17:09:08.897Z,25.83
2023-02-14T17:11:43.357Z,27.00
2023-02-14T17:14:17.810Z,17.83
2023-02-14T17:16:47.148Z,15.20
2023-02-14T17:19:15.261Z,13.83
2023-02-14T17:21:43.331Z,13.77
2023-02-14T17:24:11.253Z,13.10
2023-02-14T17:26:39.033Z,12.83
2023-02-14T17:29:06.889Z,14.57
2023-02-14T17:31:35.113Z,14.33
2023-02-14T17:34:04.338Z,15.97
2023-02-14T17:36:32.303Z,18.70
2023-02-14T17:39:00.700Z,14.80
2023-02-14T17:41:29.571Z,17.60
2023-02-14T17:44:01.300Z,16.00
2023-02-14T17:46:31.683Z,15.13
2023-02-14T17:49:02.459Z,16.80
2023-02-14T17:51:31.607Z,17.63
2023-02-14T17:53:59.418Z,16.53
2023-02-14T17:56:27.707Z,17.33
2023-02-14T17:58:56.165Z,17.97
2023-02-14T18:01:27.748Z,18.80
2023-02-14T18:03:55.786Z,19.03
2023-02-14T18:06:23.771Z,24.80
2023-02-14T18:08:56.834Z,29.83
2023-02-14T18:11:27.940Z,29.17
2023-02-14T18:13:57.984Z,29.13
2023-02-14T18:16:26.107Z,22.90
2023-02-14T18:18:54.854Z,22.73
2023-02-14T18:21:24.402Z,22.00
2023-02-14T18:23:53.937Z,22.43
2023-02-14T18:26:21.738Z,23.37
2023-02-14T18:28:51.135Z,24.03
2023-02-14T18:31:20.050Z,27.37
2023-02-14T18:33:49.831Z,29.30
2023-02-14T18:36:20.355Z,30.77
2023-02-14T18:38:48.887Z,25.43
2023-02-14T18:41:19.972Z,24.87
2023-02-14T18:43:49.343Z,30.37
2023-02-14T18:46:21.234Z,37.97
2023-02-14T18:48:50.183Z,32.60
2023-02-14T18:51:22.750Z,31.73
2023-02-14T18:53:52.403Z,31.23
2023-02-14T18:56:25.337Z,31.57
2023-02-14T18:58:57.140Z,31.63
2023-02-14T19:01:29.263Z,34.47
2023-02-14T19:04:02.138Z,32.17
2023-02-14T19:06:31.898Z,32.03
2023-02-14T19:09:00.179Z,32.43
2023-02-14T19:11:31.715Z,31.03
2023-02-14T19:14:02.897Z,31.13
2023-02-14T19:16:33.803Z,30.50
2023-02-14T19:19:02.754Z,30.93
2023-02-14T19:21:33.995Z,28.87
2023-02-14T19:24:06.912Z,28.47
2023-02-14T19:26:39.979Z,29.17
2023-02-14T19:29:11.386Z,26.00
2023-02-14T19:31:42.309Z,28.53
2023-02-14T19:34:18.637Z,27.73
2023-02-14T19:36:48.034Z,26.50
2023-02-14T19:39:16.591Z,27.30
2023-02-14T19:41:46.896Z,26.60
2023-02-14T19:44:17.050Z,28.23
2023-02-14T19:46:47.744Z,26.63
2023-02-14T19:49:18.069Z,27.27
2023-02-14T19:51:48.672Z,27.73
2023-02-14T19:54:17.775Z,28.90
2023-02-14T19:56:47.881Z,31.03
2023-02-14T19:59:20.348Z,30.57
2023-02-14T20:01:51.439Z,29.37
2023-02-14T20:04:22.145Z,28.30
2023-02-14T20:06:52.052Z,28.57
2023-02-14T20:09:22.485Z,27.40
2023-02-14T20:11:54.805Z,26.47
2023-02-14T20:14:25.909Z,26.97
2023-02-14T20:16:57.087Z,28.27
2023-02-14T20:19:29.165Z,28.97
2023-02-14T20:21:57.376Z,28.73
2023-02-14T20:24:29.045Z,29.77
2023-02-14T20:27:01.485Z,30.50
2023-02-14T20:29:29.742Z,29.97
2023-02-14T20:31:59.996Z,30.73
2023-02-14T20:34:28.895Z,30.17
2023-02-14T20:36:59.119Z,32.47
2023-02-14T20:39:36.164Z,30.03
2023-02-14T20:42:08.793Z,30.83
2023-02-14T20:44:36.767Z,33.93
2023-02-14T20:47:06.694Z,35.07
2023-02-14T20:49:35.785Z,32.87
2023-02-14T20:52:04.493Z,30.57
2023-02-14T20:54:32.491Z,30.40
2023-02-14T20:57:00.504Z,28.50
2023-02-14T20:59:29.990Z,27.13
2023-02-14T21:02:00.104Z,25.77
2023-02-14T21:04:28.858Z,26.47
2023-02-14T21:06:57.782Z,27.03
2023-02-14T21:09:25.957Z,29.80
2023-02-14T21:11:54.007Z,26.73
2023-02-14T21:14:22.006Z,25.37
2023-02-14T21:16:51.431Z,25.37
2023-02-14T21:19:19.764Z,22.87
2023-02-14T21:21:47.675Z,26.00
2023-02-14T21:24:16.572Z,25.97
2023-02-14T21:26:44.703Z,24.57
2023-02-14T21:29:12.698Z,26.03
2023-02-14T21:31:40.682Z,28.20
2023-02-14T21:34:09.971Z,30.47
2023-02-14T21:36:37.829Z,27.07
2023-02-14T21:39:06.759Z,28.00
2023-02-14T21:41:36.228Z,28.17
2023-02-14T21:44:06.229Z,31.07
2023-02-14T21:46:39.263Z,41.10
2023-02-14T21:49:27.571Z,35.03
2023-02-14T21:51:55.437Z,34.90
2023-02-14T21:54:23.304Z,31.87
2023-02-14T21:56:51.244Z,32.77
2023-02-14T21:59:19.048Z,34.47
2023-02-14T22:01:47.129Z,35.73
2023-02-14T22:04:16.564Z,34.77
2023-02-14T22:06:44.426Z,34.90
2023-02-14T22:09:14.784Z,34.00
2023-02-14T22:11:42.802Z,31.60
2023-02-14T22:14:11.266Z,30.47
2023-02-14T22:16:39.811Z,28.20
2023-02-14T22:19:13.815Z,29.57
2023-02-14T22:21:43.552Z,31.07
2023-02-14T22:24:12.531Z,29.63
2023-02-14T22:26:41.455Z,31.83
2023-02-14T22:29:12.375Z,30.53
2023-02-14T22:31:42.726Z,30.37
2023-02-14T22:34:14.601Z,29.60
2023-02-14T22:36:43.971Z,32.87
2023-02-14T22:39:15.690Z,33.13
2023-02-14T22:41:43.992Z,32.97
2023-02-14T22:44:13.335Z,30.97
2023-02-14T22:46:41.332Z,31.90
2023-02-14T22:49:09.436Z,30.83
2023-02-14T22:51:39.662Z,29.10
2023-02-14T22:54:12.436Z,31.40
2023-02-14T22:56:42.866Z,30.63
2023-02-14T22:59:16.891Z,30.50
2023-02-14T23:01:45.890Z,30.67
2023-02-14T23:04:15.945Z,26.33
2023-02-14T23:06:45.057Z,25.60
2023-02-14T23:09:15.694Z,27.17
2023-02-14T23:11:45.937Z,27.07
2023-02-14T23:14:35.755Z,28.40
2023-02-14T23:17:14.580Z,27.90
2023-02-14T23:20:02.796Z,26.50
2023-02-14T23:22:33.826Z,25.93
2023-02-14T23:25:08.613Z,27.10
2023-02-14T23:27:40.390Z,27.90
2023-02-14T23:30:13.062Z,27.37
2023-02-14T23:32:41.663Z,27.40
2023-02-14T23:35:10.789Z,26.73
2023-02-14T23:37:38.792Z,27.87
2023-02-14T23:40:10.092Z,26.33
2023-02-14T23:42:38.330Z,25.73
2023-02-14T23:45:25.934Z,24.10
2023-02-14T23:47:53.945Z,26.20
2023-02-14T23:50:22.007Z,27.17
2023-02-14T23:52:51.307Z,25.90
2023-02-14T23:55:20.480Z,24.83
2023-02-14T23:57:48.307Z,23.80
